Time,TemperatureF,DewpointF,PressureIn,WindDirection,WindDirectionDegrees,WindSpeedMPH,WindSpeedGustMPH,Humidity,HourlyPrecipIn,Conditions,Clouds,dailyrainin,SoftwareType,DateUTC
2013-05-04 00:02:00,50.0,29.5,28.54,NE,45,1.0,2.0,45,0.00,,,0.00,meteohub,2013-05-04 05:02:00,
2013-05-04 00:07:00,49.6,30.2,28.54,East,90,0.0,2.0,47,0.00,,,0.00,meteohub,2013-05-04 05:07:00,
2013-05-04 00:12:00,49.6,30.7,28.54,East,90,0.0,2.0,48,0.00,,,0.00,meteohub,2013-05-04 05:12:00,
2013-05-04 00:17:00,49.3,30.4,28.54,East,90,0.0,2.0,48,0.00,,,0.00,meteohub,2013-05-04 05:17:00,
2013-05-04 00:22:00,49.1,30.7,28.54,NE,45,0.0,0.0,49,0.00,,,0.00,meteohub,2013-05-04 05:22:00,
2013-05-04 00:27:00,48.9,31.1,28.54,NE,45,0.0,0.0,50,0.00,,,0.00,meteohub,2013-05-04 05:27:00,
2013-05-04 00:32:00,48.9,30.6,28.54,East,90,0.0,0.0,49,0.00,,,0.00,meteohub,2013-05-04 05:32:00,
2013-05-04 00:37:00,48.6,30.2,28.54,NE,45,0.0,0.0,49,0.00,,,0.00,meteohub,2013-05-04 05:37:00,
2013-05-04 00:42:00,48.7,29.8,28.55,NE,45,0.0,1.0,48,0.00,,,0.00,meteohub,2013-05-04 05:42:00,
2013-05-04 00:47:00,48.6,31.3,28.54,NE,45,0.0,1.0,51,0.00,,,0.00,meteohub,2013-05-04 05:47:00,
2013-05-04 00:52:00,48.4,32.0,28.54,NE,45,2.0,0.0,53,0.00,,,0.00,meteohub,2013-05-04 05:52:00,
2013-05-04 00:57:00,47.8,31.5,28.53,NE,45,0.0,2.0,53,0.00,,,0.00,meteohub,2013-05-04 05:57:00,
2013-05-04 01:02:00,47.8,31.5,28.54,NE,45,1.0,2.0,53,0.00,,,0.00,meteohub,2013-05-04 06:02:00,
2013-05-04 01:07:00,47.7,31.3,28.54,East,90,0.0,2.0,53,0.00,,,0.00,meteohub,2013-05-04 06:07:00,
2013-05-04 01:12:00,47.7,31.3,28.54,East,90,0.0,1.0,53,0.00,,,0.00,meteohub,2013-05-04 06:12:00,
2013-05-04 01:17:00,47.1,31.8,28.54,NE,45,0.0,1.0,55,0.00,,,0.00,meteohub,2013-05-04 06:17:00,
2013-05-04 01:22:00,47.5,33.1,28.54,NE,45,0.0,0.0,57,0.00,,,0.00,meteohub,2013-05-04 06:22:00,
2013-05-04 01:27:00,47.1,32.7,28.54,NE,45,0.0,0.0,57,0.00,,,0.00,meteohub,2013-05-04 06:27:00,
2013-05-04 01:32:00,47.3,32.9,28.54,NE,45,0.0,0.0,57,0.00,,,0.00,meteohub,2013-05-04 06:32:00,
2013-05-04 01:38:00,47.3,32.9,28.55,East,90,0.0,0.0,57,0.00,,,0.00,meteohub,2013-05-04 06:38:00,
2013-05-04 01:43:00,47.1,32.2,28.54,NE,45,0.0,0.0,56,0.00,,,0.00,meteohub,2013-05-04 06:43:00,
2013-05-04 01:48:00,47.1,32.2,28.54,SW,225,1.0,0.0,56,0.00,,,0.00,meteohub,2013-05-04 06:48:00,
2013-05-04 01:53:00,45.9,29.7,28.54,SW,225,0.0,1.0,53,0.00,,,0.00,meteohub,2013-05-04 06:53:00,
2013-05-04 01:58:00,45.0,29.8,28.54,North,0,0.0,1.0,55,0.00,,,0.00,meteohub,2013-05-04 06:58:00,
2013-05-04 02:03:00,44.4,30.2,28.54,NE,45,0.0,1.0,57,0.00,,,0.00,meteohub,2013-05-04 07:03:00,
2013-05-04 02:08:00,44.4,31.5,28.54,North,0,0.0,0.0,60,0.00,,,0.00,meteohub,2013-05-04 07:08:00,
2013-05-04 02:13:00,44.6,32.0,28.53,NE,45,0.0,0.0,61,0.00,,,0.00,meteohub,2013-05-04 07:13:00,
2013-05-04 02:18:00,44.8,31.8,28.53,North,0,0.0,0.0,60,0.00,,,0.00,meteohub,2013-05-04 07:18:00,
2013-05-04 02:23:00,45.1,32.0,28.53,North,0,0.0,0.0,60,0.00,,,0.00,meteohub,2013-05-04 07:23:00,
2013-05-04 02:28:00,44.6,29.8,28.53,West,270,0.0,0.0,56,0.00,,,0.00,meteohub,2013-05-04 07:28:00,
2013-05-04 02:33:00,41.7,28.0,28.53,NW,315,3.0,3.0,58,0.00,,,0.00,meteohub,2013-05-04 07:33:00,
2013-05-04 02:38:00,40.5,28.9,28.53,North,0,0.0,4.0,63,0.00,,,0.00,meteohub,2013-05-04 07:38:00,
2013-05-04 02:43:00,40.1,29.3,28.53,North,0,1.0,4.0,65,0.00,,,0.00,meteohub,2013-05-04 07:43:00,
2013-05-04 02:48:00,40.3,29.5,28.53,NW,315,1.0,4.0,65,0.00,,,0.00,meteohub,2013-05-04 07:48:00,
2013-05-04 02:53:00,40.8,29.7,28.53,West,270,0.0,2.0,64,0.00,,,0.00,meteohub,2013-05-04 07:53:00,
2013-05-04 02:58:00,41.5,29.8,28.53,NW,315,1.0,1.0,63,0.00,,,0.00,meteohub,2013-05-04 07:58:00,
2013-05-04 03:03:00,41.5,29.8,28.53,North,0,0.0,1.0,63,0.00,,,0.00,meteohub,2013-05-04 08:03:00,
2013-05-04 03:08:00,41.7,30.0,28.53,NW,315,1.0,1.0,63,0.00,,,0.00,meteohub,2013-05-04 08:08:00,
2013-05-04 03:13:00,41.7,30.0,28.52,West,270,0.0,1.0,63,0.00,,,0.00,meteohub,2013-05-04 08:13:00,
2013-05-04 03:18:00,41.0,28.9,28.52,North,0,0.0,2.0,62,0.00,,,0.00,meteohub,2013-05-04 08:18:00,
2013-05-04 03:23:00,40.5,29.3,28.53,North,0,1.0,2.0,64,0.00,,,0.00,meteohub,2013-05-04 08:23:00,
2013-05-04 03:28:00,40.6,29.8,28.52,NW,315,1.0,2.0,65,0.00,,,0.00,meteohub,2013-05-04 08:28:00,
2013-05-04 03:33:00,41.2,30.4,28.52,NW,315,1.0,1.0,65,0.00,,,0.00,meteohub,2013-05-04 08:33:00,
2013-05-04 03:38:00,41.5,30.2,28.52,West,270,0.0,1.0,64,0.00,,,0.00,meteohub,2013-05-04 08:38:00,
2013-05-04 03:43:00,41.5,29.8,28.52,NW,315,0.0,1.0,63,0.00,,,0.00,meteohub,2013-05-04 08:43:00,
2013-05-04 03:48:00,40.1,28.6,28.52,North,0,0.0,2.0,63,0.00,,,0.00,meteohub,2013-05-04 08:48:00,
2013-05-04 03:53:00,39.9,29.5,28.52,North,0,1.0,2.0,66,0.00,,,0.00,meteohub,2013-05-04 08:53:00,
2013-05-04 03:58:00,40.5,30.0,28.52,NW,315,0.0,2.0,66,0.00,,,0.00,meteohub,2013-05-04 08:58:00,
2013-05-04 04:03:00,41.5,30.2,28.51,WNW,293,0.0,2.0,64,0.00,,,0.00,meteohub,2013-05-04 09:03:00,
2013-05-04 04:08:00,41.9,30.2,28.52,NW,315,1.0,1.0,63,0.00,,,0.00,meteohub,2013-05-04 09:08:00,
2013-05-04 04:13:00,41.9,30.2,28.51,North,0,1.0,4.0,63,0.00,,,0.00,meteohub,2013-05-04 09:13:00,
2013-05-04 04:18:00,42.3,30.6,28.52,NW,315,1.0,4.0,63,0.00,,,0.00,meteohub,2013-05-04 09:18:00,
2013-05-04 04:23:00,42.3,30.9,28.52,North,0,1.0,3.0,64,0.00,,,0.00,meteohub,2013-05-04 09:23:00,
2013-05-04 04:28:00,42.3,30.9,28.52,NW,315,1.0,2.0,64,0.00,,,0.00,meteohub,2013-05-04 09:28:00,
2013-05-04 04:33:00,42.3,30.9,28.51,North,0,2.0,2.0,64,0.00,,,0.00,meteohub,2013-05-04 09:33:00,
2013-05-04 04:38:00,42.4,31.5,28.51,West,270,2.0,4.0,65,0.00,,,0.00,meteohub,2013-05-04 09:38:00,
2013-05-04 04:43:00,42.3,31.3,28.51,NW,315,1.0,4.0,65,0.00,,,0.00,meteohub,2013-05-04 09:43:00,
2013-05-04 04:48:00,41.7,31.3,28.51,NW,315,2.0,4.0,66,0.00,,,0.00,meteohub,2013-05-04 09:48:00,
2013-05-04 04:53:00,41.0,30.9,28.51,NW,315,3.0,4.0,67,0.00,,,0.00,meteohub,2013-05-04 09:53:00,
2013-05-04 04:58:00,40.6,31.3,28.51,NW,315,6.0,6.0,69,0.00,,,0.00,meteohub,2013-05-04 09:58:00,
2013-05-04 05:03:00,40.6,31.3,28.51,NW,315,1.0,4.0,69,0.00,,,0.00,meteohub,2013-05-04 10:03:00,
2013-05-04 05:08:00,40.6,31.3,28.51,NW,315,3.0,6.0,69,0.00,,,0.00,meteohub,2013-05-04 10:08:00,
2013-05-04 05:13:00,41.0,31.6,28.51,NW,315,2.0,6.0,69,0.00,,,0.00,meteohub,2013-05-04 10:13:00,
2013-05-04 05:18:00,41.0,31.6,28.51,North,0,4.0,4.0,69,0.00,,,0.00,meteohub,2013-05-04 10:18:00,
2013-05-04 05:23:00,40.6,31.3,28.52,West,270,2.0,5.0,69,0.00,,,0.00,meteohub,2013-05-04 10:23:00,
2013-05-04 05:28:00,40.5,31.1,28.51,NW,315,4.0,5.0,69,0.00,,,0.00,meteohub,2013-05-04 10:28:00,
2013-05-04 05:33:00,40.3,30.9,28.51,NW,315,2.0,5.0,69,0.00,,,0.00,meteohub,2013-05-04 10:33:00,
2013-05-04 05:38:00,39.9,30.9,28.51,NW,315,2.0,4.0,70,0.00,,,0.00,meteohub,2013-05-04 10:38:00,
2013-05-04 05:43:00,39.2,30.6,28.51,NW,315,3.0,4.0,71,0.00,,,0.00,meteohub,2013-05-04 10:43:00,
2013-05-04 05:48:00,39.4,31.1,28.51,North,0,4.0,4.0,72,0.00,,,0.00,meteohub,2013-05-04 10:48:00,
2013-05-04 05:53:00,39.4,30.7,28.51,NW,315,2.0,4.0,71,0.00,,,0.00,meteohub,2013-05-04 10:53:00,
2013-05-04 05:58:00,39.6,30.9,28.51,NW,315,4.0,4.0,71,0.00,,,0.00,meteohub,2013-05-04 10:58:00,
2013-05-04 06:03:00,39.7,31.1,28.51,NW,315,4.0,5.0,71,0.00,,,0.00,meteohub,2013-05-04 11:03:00,
2013-05-04 06:08:00,40.1,31.5,28.51,North,0,2.0,6.0,71,0.00,,,0.00,meteohub,2013-05-04 11:08:00,
2013-05-04 06:13:00,40.5,31.5,28.51,NW,315,5.0,6.0,70,0.00,,,0.00,meteohub,2013-05-04 11:13:00,
2013-05-04 06:18:00,40.3,31.3,28.51,North,0,5.0,5.0,70,0.00,,,0.00,meteohub,2013-05-04 11:18:00,
2013-05-04 06:23:00,40.6,31.3,28.51,NW,315,6.0,6.0,69,0.00,,,0.00,meteohub,2013-05-04 11:23:00,
2013-05-04 06:28:00,40.6,30.9,28.51,NW,315,1.0,6.0,68,0.00,,,0.00,meteohub,2013-05-04 11:28:00,
2013-05-04 06:33:00,40.8,31.1,28.51,North,0,1.0,6.0,68,0.00,,,0.00,meteohub,2013-05-04 11:33:00,
2013-05-04 06:38:00,40.8,31.1,28.51,North,0,1.0,6.0,68,0.00,,,0.00,meteohub,2013-05-04 11:38:00,
2013-05-04 06:44:00,40.8,31.1,28.51,West,270,1.0,5.0,68,0.00,,,0.00,meteohub,2013-05-04 11:44:00,
2013-05-04 06:49:00,40.6,30.9,28.51,NW,315,6.0,6.0,68,0.00,,,0.00,meteohub,2013-05-04 11:49:00,
2013-05-04 06:54:00,40.8,31.1,28.52,North,0,6.0,6.0,68,0.00,,,0.00,meteohub,2013-05-04 11:54:00,
2013-05-04 06:59:00,41.0,31.3,28.52,North,0,6.0,6.0,68,0.00,,,0.00,meteohub,2013-05-04 11:59:00,
2013-05-04 07:04:00,41.2,31.1,28.52,North,0,4.0,6.0,67,0.00,,,0.00,meteohub,2013-05-04 12:04:00,
2013-05-04 07:09:00,41.0,30.9,28.52,NW,315,4.0,6.0,67,0.00,,,0.00,meteohub,2013-05-04 12:09:00,
2013-05-04 07:15:00,41.2,31.1,28.53,North,0,7.0,7.0,67,0.00,,,0.00,meteohub,2013-05-04 12:15:00,
2013-05-04 07:20:00,41.5,31.1,28.53,NW,315,4.0,7.0,66,0.00,,,0.00,meteohub,2013-05-04 12:20:00,
2013-05-04 07:25:00,41.7,31.3,28.53,NW,315,6.0,7.0,66,0.00,,,0.00,meteohub,2013-05-04 12:25:00,
2013-05-04 07:30:00,41.5,31.1,28.53,NE,45,5.0,7.0,66,0.00,,,0.00,meteohub,2013-05-04 12:30:00,
2013-05-04 07:36:00,41.7,31.3,28.53,SW,225,4.0,6.0,66,0.00,,,0.00,meteohub,2013-05-04 12:36:00,
2013-05-04 07:41:00,41.9,30.9,28.53,NW,315,5.0,6.0,65,0.00,,,0.00,meteohub,2013-05-04 12:41:00,
2013-05-04 07:46:00,42.1,31.1,28.53,NW,315,6.0,6.0,65,0.00,,,0.00,meteohub,2013-05-04 12:46:00,
2013-05-04 07:51:00,42.4,31.5,28.54,WNW,293,2.0,7.0,65,0.00,,,0.00,meteohub,2013-05-04 12:51:00,
2013-05-04 07:56:00,42.8,31.8,28.54,NW,315,5.0,7.0,65,0.00,,,0.00,meteohub,2013-05-04 12:56:00,
2013-05-04 08:01:00,43.5,32.2,28.54,NW,315,5.0,7.0,64,0.00,,,0.00,meteohub,2013-05-04 13:01:00,
2013-05-04 08:03:00,43.3,31.6,28.54,WNW,293,4.0,7.0,63,0.00,,,0.00,meteohub,2013-05-04 13:03:00,
2013-05-04 08:08:00,44.2,31.3,28.54,NW,315,7.0,7.0,60,0.00,,,0.00,meteohub,2013-05-04 13:08:00,
2013-05-04 08:13:00,45.1,30.7,28.54,NW,315,4.0,6.0,57,0.00,,,0.00,meteohub,2013-05-04 13:13:00,
2013-05-04 08:18:00,45.9,30.6,28.54,West,270,7.0,9.0,55,0.00,,,0.00,meteohub,2013-05-04 13:18:00,
2013-05-04 08:24:00,46.2,30.0,28.54,NW,315,9.0,9.0,53,0.00,,,0.00,meteohub,2013-05-04 13:24:00,
2013-05-04 08:29:00,46.8,30.0,28.54,NW,315,10.0,10.0,52,0.00,,,0.00,meteohub,2013-05-04 13:29:00,
2013-05-04 08:34:00,47.7,30.9,28.55,West,270,7.0,11.0,52,0.00,,,0.00,meteohub,2013-05-04 13:34:00,
2013-05-04 08:39:00,48.6,30.7,28.55,West,270,5.0,11.0,50,0.00,,,0.00,meteohub,2013-05-04 13:39:00,
2013-05-04 08:44:00,49.6,30.7,28.55,South,180,8.0,11.0,48,0.00,,,0.00,meteohub,2013-05-04 13:44:00,
2013-05-04 08:49:00,50.2,30.7,28.54,NW,315,9.0,10.0,47,0.00,,,0.00,meteohub,2013-05-04 13:49:00,
2013-05-04 08:54:00,50.7,31.3,28.54,NW,315,4.0,10.0,47,0.00,,,0.00,meteohub,2013-05-04 13:54:00,
2013-05-04 08:59:00,51.4,30.7,28.54,NW,315,4.0,10.0,45,0.00,,,0.00,meteohub,2013-05-04 13:59:00,
2013-05-04 09:04:00,52.2,30.4,28.54,NW,315,8.0,10.0,43,0.00,,,0.00,meteohub,2013-05-04 14:04:00,
2013-05-04 09:09:00,52.7,30.2,28.55,NW,315,8.0,10.0,42,0.00,,,0.00,meteohub,2013-05-04 14:09:00,
2013-05-04 09:14:00,53.4,29.7,28.54,NW,315,8.0,10.0,40,0.00,,,0.00,meteohub,2013-05-04 14:14:00,
2013-05-04 09:19:00,54.0,29.5,28.54,North,0,9.0,10.0,39,0.00,,,0.00,meteohub,2013-05-04 14:19:00,
2013-05-04 09:24:00,54.5,29.5,28.54,NW,315,8.0,10.0,38,0.00,,,0.00,meteohub,2013-05-04 14:24:00,
2013-05-04 09:29:00,55.0,29.3,28.54,NW,315,8.0,11.0,37,0.00,,,0.00,meteohub,2013-05-04 14:29:00,
2013-05-04 09:34:00,55.8,29.8,28.54,North,0,11.0,11.0,37,0.00,,,0.00,meteohub,2013-05-04 14:34:00,
2013-05-04 09:39:00,56.3,28.9,28.54,West,270,11.0,11.0,35,0.00,,,0.00,meteohub,2013-05-04 14:39:00,
2013-05-04 09:44:00,56.7,27.9,28.54,NW,315,11.0,11.0,33,0.00,,,0.00,meteohub,2013-05-04 14:44:00,
2013-05-04 09:49:00,56.7,27.9,28.54,NW,315,8.0,12.0,33,0.00,,,0.00,meteohub,2013-05-04 14:49:00,
2013-05-04 09:54:00,57.0,26.6,28.55,NW,315,8.0,12.0,31,0.00,,,0.00,meteohub,2013-05-04 14:54:00,
2013-05-04 09:59:00,57.2,26.1,28.54,North,0,11.0,12.0,30,0.00,,,0.00,meteohub,2013-05-04 14:59:00,
2013-05-04 10:04:00,57.9,25.0,28.54,NW,315,11.0,13.0,28,0.00,,,0.00,meteohub,2013-05-04 15:04:00,
2013-05-04 10:09:00,58.1,24.3,28.54,NW,315,9.0,13.0,27,0.00,,,0.00,meteohub,2013-05-04 15:09:00,
2013-05-04 10:14:00,58.5,24.6,28.54,NW,315,8.0,13.0,27,0.00,,,0.00,meteohub,2013-05-04 15:14:00,
2013-05-04 10:19:00,58.6,21.9,28.55,NW,315,10.0,12.0,24,0.00,,,0.00,meteohub,2013-05-04 15:19:00,
2013-05-04 10:24:00,59.0,22.3,28.55,NE,45,14.0,14.0,24,0.00,,,0.00,meteohub,2013-05-04 15:24:00,
2013-05-04 10:29:00,59.5,20.7,28.55,North,0,10.0,14.0,22,0.00,,,0.00,meteohub,2013-05-04 15:29:00,
2013-05-04 10:34:00,59.7,20.8,28.55,NW,315,8.0,14.0,22,0.00,,,0.00,meteohub,2013-05-04 15:34:00,
2013-05-04 10:39:00,60.1,21.0,28.55,North,0,10.0,14.0,22,0.00,,,0.00,meteohub,2013-05-04 15:39:00,
2013-05-04 10:44:00,60.3,21.2,28.55,NW,315,8.0,16.0,22,0.00,,,0.00,meteohub,2013-05-04 15:44:00,
2013-05-04 10:49:00,61.0,20.8,28.55,WSW,248,8.0,16.0,21,0.00,,,0.00,meteohub,2013-05-04 15:49:00,
2013-05-04 10:54:00,60.8,19.4,28.55,WSW,248,10.0,16.0,20,0.00,,,0.00,meteohub,2013-05-04 15:54:00,
2013-05-04 10:59:00,61.2,18.5,28.55,SW,225,12.0,12.0,19,0.00,,,0.00,meteohub,2013-05-04 15:59:00,
2013-05-04 11:04:00,61.2,17.2,28.55,NW,315,8.0,12.0,18,0.00,,,0.00,meteohub,2013-05-04 16:04:00,
2013-05-04 11:09:00,61.7,16.3,28.55,NW,315,15.0,15.0,17,0.00,,,0.00,meteohub,2013-05-04 16:09:00,
2013-05-04 11:14:00,62.4,17.1,28.55,NW,315,9.0,12.0,17,0.00,,,0.00,meteohub,2013-05-04 16:14:00,
2013-05-04 11:19:00,62.1,15.3,28.55,NW,315,12.0,15.0,16,0.00,,,0.00,meteohub,2013-05-04 16:19:00,
2013-05-04 11:24:00,62.4,17.1,28.54,West,270,11.0,15.0,17,0.00,,,0.00,meteohub,2013-05-04 16:24:00,
2013-05-04 11:29:00,62.4,15.6,28.55,North,0,13.0,13.0,16,0.00,,,0.00,meteohub,2013-05-04 16:29:00,
2013-05-04 11:34:00,63.1,16.2,28.54,NW,315,10.0,15.0,16,0.00,,,0.00,meteohub,2013-05-04 16:34:00,
2013-05-04 11:39:00,63.0,16.0,28.54,WNW,293,11.0,15.0,16,0.00,,,0.00,meteohub,2013-05-04 16:39:00,
2013-05-04 11:44:00,62.8,14.4,28.54,North,0,9.0,17.0,15,0.00,,,0.00,meteohub,2013-05-04 16:44:00,
2013-05-04 11:49:00,63.1,16.2,28.55,NW,315,13.0,17.0,16,0.00,,,0.00,meteohub,2013-05-04 16:49:00,
2013-05-04 11:54:00,64.2,17.1,28.55,West,270,11.0,17.0,16,0.00,,,0.00,meteohub,2013-05-04 16:54:00,
2013-05-04 11:59:00,63.9,15.3,28.54,NW,315,10.0,15.0,15,0.00,,,0.00,meteohub,2013-05-04 16:59:00,
2013-05-04 12:05:00,64.2,15.6,28.54,North,0,17.0,17.0,15,0.00,,,0.00,meteohub,2013-05-04 17:05:00,
2013-05-04 12:10:00,64.0,15.4,28.54,NW,315,9.0,17.0,15,0.00,,,0.00,meteohub,2013-05-04 17:10:00,
2013-05-04 12:15:00,64.9,16.2,28.53,NW,315,11.0,18.0,15,0.00,,,0.00,meteohub,2013-05-04 17:15:00,
2013-05-04 12:20:00,64.8,14.4,28.53,North,0,17.0,18.0,14,0.00,,,0.00,meteohub,2013-05-04 17:20:00,
2013-05-04 12:25:00,65.1,14.7,28.54,NW,315,17.0,21.0,14,0.00,,,0.00,meteohub,2013-05-04 17:25:00,
2013-05-04 12:30:00,65.1,13.1,28.53,North,0,11.0,21.0,13,0.00,,,0.00,meteohub,2013-05-04 17:30:00,
2013-05-04 12:35:00,65.7,13.5,28.53,West,270,19.0,21.0,13,0.00,,,0.00,meteohub,2013-05-04 17:35:00,
2013-05-04 12:40:00,65.8,11.8,28.53,NW,315,14.0,19.0,12,0.00,,,0.00,meteohub,2013-05-04 17:40:00,
2013-05-04 12:45:00,66.0,12.0,28.53,NW,315,14.0,19.0,12,0.00,,,0.00,meteohub,2013-05-04 17:45:00,
2013-05-04 12:50:00,66.6,12.4,28.53,NW,315,12.0,27.0,12,0.00,,,0.00,meteohub,2013-05-04 17:50:00,
2013-05-04 12:55:00,66.6,15.8,28.52,NW,315,13.0,27.0,14,0.00,,,0.00,meteohub,2013-05-04 17:55:00,
2013-05-04 13:00:00,66.6,12.4,28.52,NW,315,15.0,27.0,12,0.00,,,0.00,meteohub,2013-05-04 18:00:00,
2013-05-04 13:05:00,66.6,12.4,28.52,NW,315,17.0,21.0,12,0.00,,,0.00,meteohub,2013-05-04 18:05:00,
2013-05-04 13:10:00,67.6,15.1,28.52,NW,315,15.0,21.0,13,0.00,,,0.00,meteohub,2013-05-04 18:10:00,
2013-05-04 13:15:00,68.2,11.7,28.52,NW,315,11.0,21.0,11,0.00,,,0.00,meteohub,2013-05-04 18:15:00,
2013-05-04 13:20:00,68.4,13.8,28.51,West,270,11.0,21.0,12,0.00,,,0.00,meteohub,2013-05-04 18:20:00,
2013-05-04 13:25:00,68.2,13.6,28.51,NW,315,12.0,21.0,12,0.00,,,0.00,meteohub,2013-05-04 18:25:00,
2013-05-04 13:30:00,68.4,11.8,28.51,NW,315,16.0,18.0,11,0.00,,,0.00,meteohub,2013-05-04 18:30:00,
2013-05-04 13:35:00,68.5,11.8,28.51,NW,315,12.0,18.0,11,0.00,,,0.00,meteohub,2013-05-04 18:35:00,
2013-05-04 13:40:00,68.7,9.9,28.51,NW,315,13.0,18.0,10,0.00,,,0.00,meteohub,2013-05-04 18:40:00,
2013-05-04 13:45:00,68.7,9.9,28.50,North,0,10.0,18.0,10,0.00,,,0.00,meteohub,2013-05-04 18:45:00,
2013-05-04 13:50:00,69.1,69.1,28.51,NW,315,17.0,20.0,0,0.00,,,0.00,meteohub,2013-05-04 18:50:00,
2013-05-04 13:55:00,69.6,69.6,28.50,NW,315,24.0,24.0,0,0.00,,,0.00,meteohub,2013-05-04 18:55:00,
2013-05-04 14:00:00,69.6,69.6,28.50,North,0,11.0,24.0,0,0.00,,,0.00,meteohub,2013-05-04 19:00:00,
2013-05-04 14:05:00,69.6,69.6,28.50,NW,315,15.0,24.0,0,0.00,,,0.00,meteohub,2013-05-04 19:05:00,
2013-05-04 14:10:00,69.8,69.8,28.51,West,270,17.0,24.0,0,0.00,,,0.00,meteohub,2013-05-04 19:10:00,
2013-05-04 14:15:00,69.8,69.8,28.50,NW,315,14.0,19.0,0,0.00,,,0.00,meteohub,2013-05-04 19:15:00,
2013-05-04 14:20:00,70.2,70.2,28.50,NW,315,17.0,17.0,0,0.00,,,0.00,meteohub,2013-05-04 19:20:00,
2013-05-04 14:25:00,70.2,70.2,28.50,NW,315,20.0,20.0,0,0.00,,,0.00,meteohub,2013-05-04 19:25:00,
2013-05-04 14:30:00,70.7,70.7,28.49,WNW,293,13.0,20.0,0,0.00,,,0.00,meteohub,2013-05-04 19:30:00,
2013-05-04 14:36:00,70.3,70.3,28.49,NW,315,11.0,23.0,0,0.00,,,0.00,meteohub,2013-05-04 19:36:00,
2013-05-04 14:41:00,71.2,71.2,28.49,WNW,293,13.0,23.0,0,0.00,,,0.00,meteohub,2013-05-04 19:41:00,
2013-05-04 14:46:00,70.7,70.7,28.49,NW,315,11.0,23.0,0,0.00,,,0.00,meteohub,2013-05-04 19:46:00,
2013-05-04 14:51:00,70.5,70.5,28.49,North,0,12.0,21.0,0,0.00,,,0.00,meteohub,2013-05-04 19:51:00,
2013-05-04 14:56:00,71.1,71.1,28.48,West,270,14.0,21.0,0,0.00,,,0.00,meteohub,2013-05-04 19:56:00,
2013-05-04 15:01:00,71.1,71.1,28.49,North,0,15.0,21.0,0,0.00,,,0.00,meteohub,2013-05-04 20:01:00,
2013-05-04 15:06:00,70.9,70.9,28.48,West,270,19.0,21.0,0,0.00,,,0.00,meteohub,2013-05-04 20:06:00,
2013-05-04 15:11:00,70.9,70.9,28.48,NW,315,14.0,25.0,0,0.00,,,0.00,meteohub,2013-05-04 20:11:00,
2013-05-04 15:16:00,71.6,71.6,28.48,NW,315,15.0,25.0,0,0.00,,,0.00,meteohub,2013-05-04 20:16:00,
2013-05-04 15:21:00,71.2,71.2,28.48,NW,315,13.0,22.0,0,0.00,,,0.00,meteohub,2013-05-04 20:21:00,
2013-05-04 15:26:00,71.6,71.6,28.48,NW,315,25.0,25.0,0,0.00,,,0.00,meteohub,2013-05-04 20:26:00,
2013-05-04 15:31:00,71.4,71.4,28.48,NW,315,16.0,25.0,0,0.00,,,0.00,meteohub,2013-05-04 20:31:00,
2013-05-04 15:36:00,71.8,71.8,28.47,NW,315,15.0,25.0,0,0.00,,,0.00,meteohub,2013-05-04 20:36:00,
2013-05-04 15:41:00,72.1,72.1,28.46,NW,315,17.0,25.0,0,0.00,,,0.00,meteohub,2013-05-04 20:41:00,
2013-05-04 15:46:00,72.3,72.3,28.47,NW,315,22.0,22.0,0,0.00,,,0.00,meteohub,2013-05-04 20:46:00,
2013-05-04 15:51:00,72.1,72.1,28.46,North,0,20.0,22.0,0,0.00,,,0.00,meteohub,2013-05-04 20:51:00,
2013-05-04 15:56:00,72.1,72.1,28.46,NW,315,16.0,22.0,0,0.00,,,0.00,meteohub,2013-05-04 20:56:00,
2013-05-04 16:01:00,72.3,72.3,28.46,West,270,15.0,22.0,0,0.00,,,0.00,meteohub,2013-05-04 21:01:00,
2013-05-04 16:06:00,72.3,72.3,28.45,North,0,20.0,20.0,0,0.00,,,0.00,meteohub,2013-05-04 21:06:00,
2013-05-04 16:11:00,72.0,72.0,28.46,NW,315,10.0,25.0,0,0.00,,,0.00,meteohub,2013-05-04 21:11:00,
2013-05-04 16:16:00,72.0,72.0,28.45,NW,315,15.0,25.0,0,0.00,,,0.00,meteohub,2013-05-04 21:16:00,
2013-05-04 16:21:00,72.7,72.7,28.45,NW,315,16.0,25.0,0,0.00,,,0.00,meteohub,2013-05-04 21:21:00,
2013-05-04 16:26:00,72.1,72.1,28.45,NW,315,25.0,25.0,0,0.00,,,0.00,meteohub,2013-05-04 21:26:00,
2013-05-04 16:31:00,72.0,72.0,28.45,WNW,293,10.0,25.0,0,0.00,,,0.00,meteohub,2013-05-04 21:31:00,
2013-05-04 16:36:00,72.3,72.3,28.45,NW,315,17.0,25.0,0,0.00,,,0.00,meteohub,2013-05-04 21:36:00,
2013-05-04 16:41:00,72.1,72.1,28.45,WNW,293,11.0,25.0,0,0.00,,,0.00,meteohub,2013-05-04 21:41:00,
2013-05-04 16:46:00,72.5,72.5,28.45,North,0,12.0,19.0,0,0.00,,,0.00,meteohub,2013-05-04 21:46:00,
2013-05-04 16:51:00,72.3,72.3,28.45,NW,315,11.0,18.0,0,0.00,,,0.00,meteohub,2013-05-04 21:51:00,
2013-05-04 16:56:00,72.5,72.5,28.45,North,0,10.0,17.0,0,0.00,,,0.00,meteohub,2013-05-04 21:56:00,
2013-05-04 17:01:00,73.0,73.0,28.45,North,0,15.0,18.0,0,0.00,,,0.00,meteohub,2013-05-04 22:01:00,
2013-05-04 17:06:00,72.9,72.9,28.45,NW,315,16.0,21.0,0,0.00,,,0.00,meteohub,2013-05-04 22:06:00,
2013-05-04 17:11:00,72.5,72.5,28.45,NW,315,8.0,21.0,0,0.00,,,0.00,meteohub,2013-05-04 22:11:00,
2013-05-04 17:16:00,72.3,72.3,28.45,North,0,15.0,21.0,0,0.00,,,0.00,meteohub,2013-05-04 22:16:00,
2013-05-04 17:21:00,72.1,72.1,28.45,North,0,15.0,20.0,0,0.00,,,0.00,meteohub,2013-05-04 22:21:00,
2013-05-04 17:26:00,72.5,72.5,28.45,NW,315,10.0,20.0,0,0.00,,,0.00,meteohub,2013-05-04 22:26:00,
2013-05-04 17:31:00,72.9,72.9,28.45,NW,315,11.0,20.0,0,0.00,,,0.00,meteohub,2013-05-04 22:31:00,
2013-05-04 17:36:00,72.5,72.5,28.45,NW,315,11.0,17.0,0,0.00,,,0.00,meteohub,2013-05-04 22:36:00,
2013-05-04 17:41:00,72.0,72.0,28.45,North,0,10.0,19.0,0,0.00,,,0.00,meteohub,2013-05-04 22:41:00,
2013-05-04 17:47:00,72.3,72.3,28.45,North,0,13.0,19.0,0,0.00,,,0.00,meteohub,2013-05-04 22:47:00,
2013-05-04 17:52:00,72.0,72.0,28.45,NW,315,13.0,19.0,0,0.00,,,0.00,meteohub,2013-05-04 22:52:00,
2013-05-04 17:57:00,71.6,71.6,28.45,NW,315,8.0,20.0,0,0.00,,,0.00,meteohub,2013-05-04 22:57:00,
2013-05-04 18:02:00,72.1,72.1,28.45,WNW,293,2.0,20.0,0,0.00,,,0.00,meteohub,2013-05-04 23:02:00,
2013-05-04 18:07:00,71.6,71.6,28.45,NW,315,11.0,20.0,0,0.00,,,0.00,meteohub,2013-05-04 23:07:00,
2013-05-04 18:12:00,71.8,71.8,28.45,NW,315,10.0,15.0,0,0.00,,,0.00,meteohub,2013-05-04 23:12:00,
2013-05-04 18:17:00,71.4,71.4,28.45,WNW,293,11.0,17.0,0,0.00,,,0.00,meteohub,2013-05-04 23:17:00,
2013-05-04 18:22:00,71.4,71.4,28.45,East,90,9.0,17.0,0,0.00,,,0.00,meteohub,2013-05-04 23:22:00,
2013-05-04 18:27:00,71.2,71.2,28.45,NNW,338,13.0,17.0,0,0.00,,,0.00,meteohub,2013-05-04 23:27:00,
2013-05-04 18:32:00,70.7,70.7,28.45,North,0,11.0,17.0,0,0.00,,,0.00,meteohub,2013-05-04 23:32:00,
2013-05-04 18:37:00,70.9,70.9,28.46,NW,315,8.0,17.0,0,0.00,,,0.00,meteohub,2013-05-04 23:37:00,
2013-05-04 18:42:00,71.1,71.1,28.46,NW,315,8.0,15.0,0,0.00,,,0.00,meteohub,2013-05-04 23:42:00,
2013-05-04 18:47:00,71.2,71.2,28.45,North,0,14.0,15.0,0,0.00,,,0.00,meteohub,2013-05-04 23:47:00,
2013-05-04 18:52:00,70.5,70.5,28.46,NW,315,8.0,15.0,0,0.00,,,0.00,meteohub,2013-05-04 23:52:00,
2013-05-04 18:57:00,70.3,70.3,28.46,North,0,17.0,17.0,0,0.00,,,0.00,meteohub,2013-05-04 23:57:00,
2013-05-04 19:02:00,70.0,70.0,28.45,East,90,15.0,17.0,0,0.00,,,0.00,meteohub,2013-05-05 00:02:00,
2013-05-04 19:07:00,69.8,69.8,28.46,North,0,11.0,17.0,0,0.00,,,0.00,meteohub,2013-05-05 00:07:00,
2013-05-04 19:12:00,69.6,69.6,28.46,NW,315,11.0,17.0,0,0.00,,,0.00,meteohub,2013-05-05 00:12:00,
2013-05-04 19:17:00,69.4,69.4,28.46,North,0,12.0,15.0,0,0.00,,,0.00,meteohub,2013-05-05 00:17:00,
2013-05-04 19:22:00,69.6,69.6,28.47,West,270,9.0,15.0,0,0.00,,,0.00,meteohub,2013-05-05 00:22:00,
2013-05-04 19:27:00,69.3,69.3,28.47,NE,45,11.0,15.0,0,0.00,,,0.00,meteohub,2013-05-05 00:27:00,
2013-05-04 19:32:00,69.1,69.1,28.47,NE,45,15.0,15.0,0,0.00,,,0.00,meteohub,2013-05-05 00:32:00,
2013-05-04 19:37:00,68.7,68.7,28.47,North,0,6.0,15.0,0,0.00,,,0.00,meteohub,2013-05-05 00:37:00,
2013-05-04 19:42:00,68.5,68.5,28.47,North,0,8.0,15.0,0,0.00,,,0.00,meteohub,2013-05-05 00:42:00,
2013-05-04 19:47:00,68.0,68.0,28.48,NE,45,7.0,15.0,0,0.00,,,0.00,meteohub,2013-05-05 00:47:00,
2013-05-04 19:52:00,67.6,67.6,28.47,North,0,1.0,14.0,0,0.00,,,0.00,meteohub,2013-05-05 00:52:00,
2013-05-04 19:57:00,67.3,67.3,28.48,NW,315,14.0,14.0,0,0.00,,,0.00,meteohub,2013-05-05 00:57:00,
2013-05-04 20:02:00,66.7,66.7,28.48,North,0,2.0,14.0,0,0.00,,,0.00,meteohub,2013-05-05 01:02:00,
2013-05-04 20:07:00,66.6,66.6,28.48,North,0,7.0,14.0,0,0.00,,,0.00,meteohub,2013-05-05 01:07:00,
2013-05-04 20:12:00,65.8,65.8,28.48,North,0,8.0,14.0,0,0.00,,,0.00,meteohub,2013-05-05 01:12:00,
2013-05-04 20:17:00,65.3,65.3,28.48,North,0,2.0,9.0,0,0.00,,,0.00,meteohub,2013-05-05 01:17:00,
2013-05-04 20:22:00,64.6,64.6,28.49,NE,45,2.0,9.0,0,0.00,,,0.00,meteohub,2013-05-05 01:22:00,
2013-05-04 20:27:00,64.2,64.2,28.49,North,0,7.0,8.0,0,0.00,,,0.00,meteohub,2013-05-05 01:27:00,
2013-05-04 20:32:00,63.5,5.9,28.49,NE,45,4.0,8.0,10,0.00,,,0.00,meteohub,2013-05-05 01:32:00,
2013-05-04 20:37:00,63.1,7.7,28.49,NW,315,3.0,8.0,11,0.00,,,0.00,meteohub,2013-05-05 01:37:00,
2013-05-04 20:42:00,62.6,9.3,28.50,NE,45,1.0,8.0,12,0.00,,,0.00,meteohub,2013-05-05 01:42:00,
2013-05-04 20:47:00,62.4,10.9,28.50,North,0,1.0,8.0,13,0.00,,,0.00,meteohub,2013-05-05 01:47:00,
2013-05-04 20:52:00,62.2,12.4,28.50,North,0,7.0,8.0,14,0.00,,,0.00,meteohub,2013-05-05 01:52:00,
2013-05-04 20:57:00,61.7,13.6,28.50,NW,315,2.0,8.0,15,0.00,,,0.00,meteohub,2013-05-05 01:57:00,
2013-05-04 21:02:00,61.7,15.1,28.50,North,0,3.0,8.0,16,0.00,,,0.00,meteohub,2013-05-05 02:02:00,
2013-05-04 21:07:00,61.2,16.0,28.51,NE,45,2.0,8.0,17,0.00,,,0.00,meteohub,2013-05-05 02:07:00,
2013-05-04 21:12:00,60.6,16.9,28.50,North,0,1.0,5.0,18,0.00,,,0.00,meteohub,2013-05-05 02:12:00,
2013-05-04 21:17:00,60.3,30.2,28.52,East,90,15.0,15.0,32,0.00,,,0.00,meteohub,2013-05-05 02:17:00,
2013-05-04 21:22:00,58.8,35.2,28.53,NE,45,14.0,24.0,41,0.00,,,0.00,meteohub,2013-05-05 02:22:00,
2013-05-04 21:27:00,57.4,37.9,28.53,NE,45,17.0,24.0,48,0.00,,,0.00,meteohub,2013-05-05 02:27:00,
2013-05-04 21:32:00,56.7,37.8,28.53,East,90,11.0,24.0,49,0.00,,,0.00,meteohub,2013-05-05 02:32:00,
2013-05-04 21:37:00,56.3,38.5,28.54,NE,45,15.0,19.0,51,0.00,,,0.00,meteohub,2013-05-05 02:37:00,
2013-05-04 21:42:00,56.1,38.7,28.54,NE,45,14.0,19.0,52,0.00,,,0.00,meteohub,2013-05-05 02:42:00,
2013-05-04 21:47:00,55.8,39.4,28.54,NE,45,12.0,15.0,54,0.00,,,0.00,meteohub,2013-05-05 02:47:00,
2013-05-04 21:52:00,55.2,39.4,28.54,NE,45,11.0,15.0,55,0.00,,,0.00,meteohub,2013-05-05 02:52:00,
2013-05-04 21:57:00,55.0,39.6,28.55,East,90,11.0,15.0,56,0.00,,,0.00,meteohub,2013-05-05 02:57:00,
2013-05-04 22:02:00,54.7,39.7,28.55,East,90,10.0,14.0,57,0.00,,,0.00,meteohub,2013-05-05 03:02:00,
2013-05-04 22:07:00,54.3,39.4,28.55,NE,45,11.0,14.0,57,0.00,,,0.00,meteohub,2013-05-05 03:07:00,
2013-05-04 22:12:00,54.0,39.6,28.56,North,0,10.0,12.0,58,0.00,,,0.00,meteohub,2013-05-05 03:12:00,
2013-05-04 22:17:00,53.6,39.6,28.56,NE,45,8.0,13.0,59,0.00,,,0.00,meteohub,2013-05-05 03:17:00,
2013-05-04 22:22:00,53.2,39.2,28.56,NE,45,10.0,13.0,59,0.00,,,0.00,meteohub,2013-05-05 03:22:00,
2013-05-04 22:27:00,53.1,39.6,28.56,NE,45,6.0,13.0,60,0.00,,,0.00,meteohub,2013-05-05 03:27:00,
2013-05-04 22:32:00,52.7,39.6,28.57,NE,45,6.0,12.0,61,0.00,,,0.00,meteohub,2013-05-05 03:32:00,
2013-05-04 22:37:00,52.3,39.4,28.57,NE,45,7.0,10.0,61,0.00,,,0.00,meteohub,2013-05-05 03:37:00,
2013-05-04 22:42:00,52.3,39.7,28.57,NE,45,5.0,10.0,62,0.00,,,0.00,meteohub,2013-05-05 03:42:00,
2013-05-04 22:47:00,52.2,39.6,28.57,North,0,9.0,10.0,62,0.00,,,0.00,meteohub,2013-05-05 03:47:00,
2013-05-04 22:52:00,51.8,39.6,28.58,NE,45,7.0,12.0,63,0.00,,,0.00,meteohub,2013-05-05 03:52:00,
2013-05-04 22:57:00,51.8,39.6,28.58,North,0,8.0,12.0,63,0.00,,,0.00,meteohub,2013-05-05 03:57:00,
2013-05-04 23:01:00,52.0,40.1,28.58,WNW,293,9.0,11.0,64,0.00,,,0.00,meteohub,2013-05-05 04:01:00,
2013-05-04 23:06:00,51.4,40.1,28.58,East,90,10.0,11.0,65,0.00,,,0.00,meteohub,2013-05-05 04:06:00,
2013-05-04 23:11:00,51.4,40.1,28.58,East,90,7.0,11.0,65,0.00,,,0.00,meteohub,2013-05-05 04:11:00,
2013-05-04 23:16:00,51.3,40.3,28.59,NE,45,8.0,11.0,66,0.00,,,0.00,meteohub,2013-05-05 04:16:00,
2013-05-04 23:21:00,51.1,40.1,28.59,North,0,5.0,10.0,66,0.00,,,0.00,meteohub,2013-05-05 04:21:00,
2013-05-04 23:27:00,50.9,39.9,28.59,NE,45,2.0,8.0,66,0.00,,,0.00,meteohub,2013-05-05 04:27:00,
2013-05-04 23:32:00,50.7,40.1,28.59,NE,45,5.0,8.0,67,0.00,,,0.00,meteohub,2013-05-05 04:32:00,
2013-05-04 23:37:00,50.7,40.1,28.59,East,90,4.0,8.0,67,0.00,,,0.00,meteohub,2013-05-05 04:37:00,
2013-05-04 23:42:00,50.7,40.5,28.59,NE,45,4.0,8.0,68,0.00,,,0.00,meteohub,2013-05-05 04:42:00,
2013-05-04 23:47:00,50.5,40.5,28.59,NE,45,4.0,8.0,68,0.00,,,0.00,meteohub,2013-05-05 04:47:00,
2013-05-04 23:52:00,50.4,40.3,28.59,WSW,248,1.0,8.0,68,0.00,,,0.00,meteohub,2013-05-05 04:52:00,
2013-05-04 23:57:00,50.2,40.1,28.60,North,0,1.0,6.0,68,0.00,,,0.00,meteohub,2013-05-05 04:57:00,